Time;durP1;ratioP1;P1;durP2;ratioP2;P2;SDS_P1;SDS_P2;PMS_P1;PMS_P2;Temp;Humidity;BMP_temperature;BMP_pressure;BME280_temperature;BME280_humidity;BME280_pressure;Samples;Min_cycle;Max_cycle;Signal;HPM_P1;HPM_P2
2024/03/25 00:01:56;;;;;;;16.50;4.03;;;;;;;6.53;100.00;100729.78;5249213;28;20036;-77
2024/03/25 00:04:28;;;;;;;21.30;4.75;;;;;;;6.53;100.00;100736.75;5250004;28;20402;-79
2024/03/25 00:07:01;;;;;;;18.33;4.43;;;;;;;6.41;100.00;100717.63;5249336;28;20033;-77
2024/03/25 00:09:33;;;;;;;20.17;4.93;;;;;;;6.48;100.00;100737.06;5251469;28;20903;-77
2024/03/25 00:12:06;;;;;;;18.50;4.57;;;;;;;6.42;100.00;100732.28;5248125;28;20032;-78
2024/03/25 00:14:38;;;;;;;14.97;3.80;;;;;;;6.44;100.00;100733.03;5246712;28;20025;-77
2024/03/25 00:17:11;;;;;;;17.48;4.60;;;;;;;6.43;100.00;100731.34;5245777;28;20060;-78
2024/03/25 00:19:48;;;;;;;12.85;3.30;;;;;;;6.41;100.00;100730.63;5243654;28;20368;-78
2024/03/25 00:22:21;;;;;;;23.20;3.70;;;;;;;6.29;100.00;100726.28;5240698;28;20025;-77
2024/03/25 00:24:53;;;;;;;12.65;3.83;;;;;;;6.39;100.00;100729.06;5247034;28;20040;-78
2024/03/25 00:27:24;;;;;;;19.08;3.65;;;;;;;6.30;100.00;100720.13;5247237;28;20035;-79
2024/03/25 00:29:56;;;;;;;18.63;4.15;;;;;;;6.30;100.00;100715.75;5248288;28;20482;-79
2024/03/25 00:32:28;;;;;;;13.43;4.43;;;;;;;6.28;100.00;100719.38;5248052;28;20158;-79
2024/03/25 00:35:00;;;;;;;16.63;3.95;;;;;;;6.25;100.00;100717.00;5247330;28;20033;-78
2024/03/25 00:37:32;;;;;;;13.93;3.97;;;;;;;6.23;100.00;100711.06;5250934;28;20033;-78
2024/03/25 00:40:07;;;;;;;13.65;3.70;;;;;;;6.17;100.00;100714.09;5247424;28;20041;-78
2024/03/25 00:42:39;;;;;;;14.93;3.53;;;;;;;6.17;100.00;100721.91;5248446;28;20037;-79
2024/03/25 00:45:11;;;;;;;19.73;4.25;;;;;;;6.15;100.00;100726.38;5245963;28;20045;-78
2024/03/25 00:47:43;;;;;;;16.10;3.95;;;;;;;6.11;100.00;100714.53;5251791;28;20067;-78
2024/03/25 00:50:15;;;;;;;20.00;4.75;;;;;;;6.12;100.00;100731.78;5248075;28;20029;-78
2024/03/25 00:52:46;;;;;;;20.85;4.35;;;;;;;6.08;100.00;100733.75;5247608;28;20052;-78
2024/03/25 00:55:19;;;;;;;16.55;4.35;;;;;;;6.06;100.00;100730.41;5248735;28;20064;-79
2024/03/25 00:57:51;;;;;;;14.48;4.43;;;;;;;6.08;100.00;100729.38;5248335;28;20029;-78
2024/03/25 01:00:23;;;;;;;13.15;3.42;;;;;;;6.03;100.00;100733.25;5247281;28;20383;-78
2024/03/25 01:02:55;;;;;;;19.00;3.92;;;;;;;6.04;100.00;100735.75;5248715;28;20340;-78
2024/03/25 01:05:28;;;;;;;15.55;3.47;;;;;;;6.05;100.00;100739.16;5246811;28;20048;-79
2024/03/25 01:07:59;;;;;;;16.33;4.13;;;;;;;5.93;100.00;100725.22;5246582;28;20278;-78
2024/03/25 01:10:31;;;;;;;12.52;4.05;;;;;;;6.01;100.00;100735.94;5246655;28;20484;-78
2024/03/25 01:13:03;;;;;;;17.77;3.95;;;;;;;5.99;100.00;100732.63;5246224;28;20028;-78
2024/03/25 01:15:35;;;;;;;12.85;3.30;;;;;;;5.99;100.00;100729.19;5248553;28;20049;-78
2024/03/25 01:18:08;;;;;;;14.25;3.67;;;;;;;5.95;100.00;100730.34;5246629;28;20043;-79
2024/03/25 01:20:39;;;;;;;15.07;4.00;;;;;;;6.03;100.00;100739.28;5249460;28;20517;-78
2024/03/25 01:23:11;;;;;;;13.15;3.20;;;;;;;5.98;100.00;100736.13;5248080;28;20301;-79
2024/03/25 01:25:44;;;;;;;15.43;4.25;;;;;;;5.98;100.00;100743.13;5246938;28;20024;-78
2024/03/25 01:28:16;;;;;;;17.25;3.78;;;;;;;5.94;100.00;100739.06;5245508;28;20041;-78
2024/03/25 01:30:48;;;;;;;16.95;4.53;;;;;;;5.86;100.00;100745.56;5247180;28;20035;-78
2024/03/25 01:33:20;;;;;;;11.43;3.15;;;;;;;5.87;100.00;100741.19;5245280;28;20039;-78
2024/03/25 01:35:55;;;;;;;17.33;4.32;;;;;;;5.88;100.00;100739.44;5247675;28;20111;-78
2024/03/25 01:38:28;;;;;;;16.23;3.35;;;;;;;5.87;100.00;100736.00;5244406;28;20051;-79
2024/03/25 01:41:15;;;;;;;17.95;4.05;;;;;;;6.07;100.00;100724.31;5246147;28;21397;-78
2024/03/25 01:43:46;;;;;;;11.88;3.50;;;;;;;5.90;100.00;100725.41;5245888;28;20045;-78
2024/03/25 01:46:19;;;;;;;16.98;3.58;;;;;;;5.91;100.00;100732.28;5248039;28;20035;-78
2024/03/25 01:48:53;;;;;;;16.92;3.70;;;;;;;5.89;100.00;100722.91;5248576;28;20044;-79
2024/03/25 01:51:25;;;;;;;14.52;3.60;;;;;;;5.86;100.00;100729.13;5247390;28;20036;-79
2024/03/25 01:53:58;;;;;;;15.77;3.55;;;;;;;5.88;100.00;100729.06;5246772;28;20398;-79
2024/03/25 01:56:32;;;;;;;;;;;;;;;6.55;100.00;100730.50;5248837;28;20044;-79
2024/03/25 01:59:04;;;;;;;14.07;3.13;;;;;;;5.94;100.00;100731.25;5244916;28;20092;-78
2024/03/25 02:01:36;;;;;;;15.50;3.50;;;;;;;5.79;100.00;100714.88;5245630;28;20410;-79
2024/03/25 02:04:09;;;;;;;15.40;3.60;;;;;;;5.84;100.00;100729.25;5246584;28;20560;-79
2024/03/25 02:06:42;;;;;;;12.38;3.45;;;;;;;5.81;100.00;100728.63;5246671;28;20462;-79
2024/03/25 02:09:14;;;;;;;15.77;4.28;;;;;;;5.77;100.00;100733.19;5245553;28;20391;-78
2024/03/25 02:11:46;;;;;;;15.88;3.63;;;;;;;5.71;100.00;100731.00;5248945;28;20043;-78
2024/03/25 02:14:18;;;;;;;14.10;3.55;;;;;;;5.69;100.00;100727.66;5246081;28;20048;-79
2024/03/25 02:16:50;;;;;;;15.52;3.25;;;;;;;5.68;100.00;100738.97;5246638;28;20044;-78
2024/03/25 02:19:24;;;;;;;14.90;3.85;;;;;;;5.74;100.00;100735.16;5245862;28;20116;-79
2024/03/25 02:21:56;;;;;;;15.23;3.78;;;;;;;5.63;100.00;100724.63;5244164;28;20028;-78
2024/03/25 02:24:29;;;;;;;14.07;3.83;;;;;;;5.64;100.00;100728.91;5245568;28;20344;-78
2024/03/25 02:27:01;;;;;;;14.38;4.30;;;;;;;5.61;100.00;100722.97;5248212;28;20036;-78
2024/03/25 02:29:34;;;;;;;12.50;3.95;;;;;;;5.63;100.00;100719.44;5245858;28;20040;-78
2024/03/25 02:32:10;;;;;;;16.90;4.38;;;;;;;5.64;100.00;100715.91;5244131;28;20031;-79
2024/03/25 02:34:49;;;;;;;16.13;4.60;;;;;;;5.76;100.00;100715.09;5245675;28;20398;-79
2024/03/25 02:37:21;;;;;;;15.13;3.58;;;;;;;5.61;100.00;100710.00;5242748;28;20788;-79
2024/03/25 02:39:57;;;;;;;13.77;3.88;;;;;;;5.67;100.00;100710.50;5246583;28;20762;-78
2024/03/25 02:42:29;;;;;;;14.27;4.53;;;;;;;5.56;100.00;100706.00;5247870;28;20033;-78
2024/03/25 02:45:01;;;;;;;9.07;3.17;;;;;;;5.57;100.00;100703.34;5248399;28;20056;-78
2024/03/25 02:47:33;;;;;;;14.60;3.88;;;;;;;5.54;100.00;100707.91;5249440;28;20409;-79
2024/03/25 02:50:05;;;;;;;13.18;3.97;;;;;;;5.52;100.00;100707.97;5246661;28;20037;-77
2024/03/25 02:52:37;;;;;;;18.23;4.90;;;;;;;5.39;100.00;100691.53;5249259;28;20449;-77
2024/03/25 02:55:09;;;;;;;14.93;3.88;;;;;;;5.45;100.00;100701.50;5250152;28;20037;-78
2024/03/25 02:57:41;;;;;;;16.15;4.30;;;;;;;5.42;100.00;100698.28;5249309;28;20119;-78
2024/03/25 03:00:13;;;;;;;11.43;3.70;;;;;;;5.42;100.00;100706.06;5246938;28;20244;-78
2024/03/25 03:02:45;;;;;;;12.60;3.65;;;;;;;5.37;100.00;100706.38;5247920;28;20040;-77
2024/03/25 03:05:17;;;;;;;12.63;4.15;;;;;;;5.30;100.00;100692.13;5250096;28;20029;-77
2024/03/25 03:07:49;;;;;;;16.80;4.30;;;;;;;5.33;100.00;100702.31;5249365;28;20033;-77
2024/03/25 03:10:21;;;;;;;11.75;3.60;;;;;;;5.29;100.00;100691.31;5250131;28;20033;-77
2024/03/25 03:12:52;;;;;;;14.40;4.57;;;;;;;5.24;100.00;100684.75;5251630;28;20044;-78
2024/03/25 03:15:24;;;;;;;14.60;4.72;;;;;;;5.25;100.00;100676.03;5251737;28;20029;-77
2024/03/25 03:17:56;;;;;;;15.02;4.13;;;;;;;5.21;100.00;100692.75;5251802;28;20397;-78
2024/03/25 03:20:28;;;;;;;15.90;4.45;;;;;;;5.23;100.00;100693.50;5248631;28;20333;-77
2024/03/25 03:23:00;;;;;;;11.73;4.13;;;;;;;5.20;100.00;100693.69;5247666;28;20037;-77
2024/03/25 03:25:32;;;;;;;14.35;4.53;;;;;;;5.18;100.00;100679.94;5250513;28;20039;-77
2024/03/25 03:28:04;;;;;;;12.00;4.63;;;;;;;5.15;100.00;100683.56;5249465;28;20495;-77
2024/03/25 03:30:36;;;;;;;11.68;4.38;;;;;;;5.13;100.00;100685.44;5247520;28;20044;-77
2024/03/25 03:33:08;;;;;;;14.90;5.18;;;;;;;5.11;100.00;100684.69;5249199;28;20414;-77
2024/03/25 03:35:40;;;;;;;11.10;4.25;;;;;;;5.10;100.00;100677.84;5250468;28;20045;-77
2024/03/25 03:38:12;;;;;;;14.77;5.50;;;;;;;5.13;100.00;100680.25;5229584;28;20040;-77
2024/03/25 03:40:59;;;;;;;18.05;5.88;;;;;;;5.36;100.00;100681.34;5247094;28;20055;-78
2024/03/25 03:43:31;;;;;;;13.90;5.13;;;;;;;5.12;100.00;100686.38;5248922;28;20072;-77
2024/03/25 03:46:03;;;;;;;17.20;5.93;;;;;;;5.09;100.00;100686.56;5246924;28;20025;-77
2024/03/25 03:48:35;;;;;;;15.48;6.47;;;;;;;5.10;100.00;100686.47;5246185;28;20064;-76
2024/03/25 03:51:08;;;;;;;19.00;6.45;;;;;;;5.07;100.00;100689.25;5245018;28;20052;-77
2024/03/25 03:53:40;;;;;;;17.52;6.43;;;;;;;5.09;100.00;100682.22;5247824;28;20044;-77
2024/03/25 03:56:11;;;;;;;16.50;6.35;;;;;;;5.09;100.00;100686.56;5246993;28;20033;-77
2024/03/25 03:58:43;;;;;;;13.02;6.63;;;;;;;5.06;100.00;100689.38;5248284;28;20668;-77
2024/03/25 04:01:17;;;;;;;17.55;6.80;;;;;;;5.03;100.00;100679.16;5249996;28;20083;-77
2024/03/25 04:03:49;;;;;;;;;;;;;;;5.75;100.00;100682.22;5250164;28;20765;-78
2024/03/25 04:06:21;;;;;;;16.45;7.38;;;;;;;5.07;100.00;100676.28;5251238;28;19923;-78
2024/03/25 04:08:53;;;;;;;15.25;6.18;;;;;;;5.07;100.00;100678.88;5254483;28;20032;-78
2024/03/25 04:11:25;;;;;;;14.32;5.93;;;;;;;5.01;100.00;100675.84;5236948;28;20051;-78
2024/03/25 04:13:57;;;;;;;13.32;6.20;;;;;;;5.01;100.00;100675.84;5255144;28;20036;-76
2024/03/25 04:16:30;;;;;;;15.75;6.35;;;;;;;4.99;100.00;100678.53;5253148;28;20028;-78
2024/03/25 04:19:02;;;;;;;16.05;6.65;;;;;;;5.01;100.00;100676.69;5254587;28;20029;-78
2024/03/25 04:21:34;;;;;;;16.02;6.90;;;;;;;4.99;100.00;100678.53;5255446;28;20078;-78
2024/03/25 04:24:06;;;;;;;16.30;7.05;;;;;;;4.97;100.00;100670.03;5254297;28;20036;-78
2024/03/25 04:26:38;;;;;;;17.55;7.53;;;;;;;4.94;100.00;100669.38;5255285;28;20044;-77
2024/03/25 04:29:10;;;;;;;16.30;7.68;;;;;;;4.93;100.00;100658.19;5255876;28;20526;-77
2024/03/25 04:31:42;;;;;;;14.15;6.43;;;;;;;4.96;100.00;100670.09;5248403;28;20033;-78
2024/03/25 04:34:13;;;;;;;16.80;7.72;;;;;;;4.89;100.00;100661.91;5249153;28;20047;-77
2024/03/25 04:36:45;;;;;;;11.15;6.07;;;;;;;4.92;100.00;100671.22;5248142;28;20144;-76
2024/03/25 04:39:18;;;;;;;15.27;7.57;;;;;;;4.89;100.00;100672.28;5246293;28;20482;-77
2024/03/25 04:41:50;;;;;;;14.83;7.33;;;;;;;4.86;100.00;100669.88;5248688;28;20032;-77
2024/03/25 04:44:22;;;;;;;15.25;7.00;;;;;;;4.86;100.00;100677.66;5246787;28;20508;-77
2024/03/25 04:46:54;;;;;;;15.55;7.47;;;;;;;4.82;100.00;100673.59;5248281;28;20024;-77
2024/03/25 04:49:25;;;;;;;14.10;7.25;;;;;;;4.77;100.00;100670.44;5250505;28;20041;-77
2024/03/25 04:51:57;;;;;;;13.18;7.25;;;;;;;4.77;100.00;100678.22;5246971;28;20035;-77
2024/03/25 04:54:29;;;;;;;14.25;7.65;;;;;;;4.76;100.00;100682.59;5247767;28;20033;-77
2024/03/25 04:57:01;;;;;;;13.05;7.35;;;;;;;4.74;100.00;100679.28;5249013;28;20047;-77
2024/03/25 04:59:33;;;;;;;13.50;7.15;;;;;;;4.76;100.00;100676.56;5246679;28;20489;-77
2024/03/25 05:02:05;;;;;;;13.88;7.65;;;;;;;4.74;100.00;100676.69;5244729;28;20071;-77
2024/03/25 05:04:37;;;;;;;15.45;7.03;;;;;;;4.74;100.00;100681.88;5247952;28;20048;-77
2024/03/25 05:07:10;;;;;;;17.40;8.32;;;;;;;4.71;100.00;100683.81;5248882;28;20561;-76
2024/03/25 05:09:42;;;;;;;14.73;7.50;;;;;;;4.75;100.00;100683.53;5247555;28;20032;-76
2024/03/25 05:12:14;;;;;;;15.77;8.20;;;;;;;4.67;100.00;100684.94;5248711;28;20478;-78
2024/03/25 05:14:46;;;;;;;14.45;7.18;;;;;;;4.69;100.00;100688.25;5247908;28;20039;-77
2024/03/25 05:17:18;;;;;;;15.43;7.80;;;;;;;4.68;100.00;100684.84;5248457;28;20037;-77
2024/03/25 05:19:50;;;;;;;16.15;7.60;;;;;;;4.72;100.00;100685.47;5248163;28;20560;-77
2024/03/25 05:22:22;;;;;;;12.38;7.07;;;;;;;4.72;100.00;100685.47;5248868;28;20508;-76
2024/03/25 05:24:54;;;;;;;13.32;7.18;;;;;;;4.62;100.00;100685.22;5249062;28;20041;-76
2024/03/25 05:27:26;;;;;;;12.73;6.90;;;;;;;4.63;100.00;100697.28;5249006;28;20028;-77
2024/03/25 05:29:58;;;;;;;11.90;7.30;;;;;;;4.62;100.00;100699.03;5248858;28;20587;-77
2024/03/25 05:32:30;;;;;;;13.35;7.32;;;;;;;4.59;100.00;100703.59;5248433;28;21120;-77
2024/03/25 05:35:03;;;;;;;10.73;7.05;;;;;;;4.56;100.00;100694.22;5245454;28;20049;-77
2024/03/25 05:37:36;;;;;;;13.15;7.28;;;;;;;4.56;100.00;100698.59;5245618;28;20040;-77
2024/03/25 05:40:11;;;;;;;10.65;6.53;;;;;;;4.56;100.00;100706.38;5245394;28;20509;-76
2024/03/25 05:42:46;;;;;;;13.15;7.13;;;;;;;4.61;100.00;100693.94;5228948;28;20382;-77
2024/03/25 05:45:18;;;;;;;13.65;7.32;;;;;;;4.51;100.00;100701.47;5245794;28;20577;-77
2024/03/25 05:47:50;;;;;;;12.07;7.18;;;;;;;4.45;100.00;100698.41;5248034;28;20043;-77
2024/03/25 05:50:22;;;;;;;12.97;6.93;;;;;;;4.51;100.00;100695.44;5243695;28;20033;-77
2024/03/25 05:52:54;;;;;;;11.40;7.22;;;;;;;4.47;100.00;100686.16;5244258;28;20036;-78
2024/03/25 05:55:26;;;;;;;13.75;7.65;;;;;;;4.46;100.00;100690.53;5226758;28;20052;-77
2024/03/25 05:57:58;;;;;;;10.73;7.47;;;;;;;4.48;100.00;100683.50;5245957;28;20047;-77
2024/03/25 06:00:32;;;;;;;12.45;7.40;;;;;;;4.47;100.00;100686.16;5247353;28;20024;-78
2024/03/25 06:03:05;;;;;;;10.68;7.20;;;;;;;4.45;100.00;100683.69;5246681;28;20457;-78
2024/03/25 06:05:38;;;;;;;12.50;7.37;;;;;;;4.53;100.00;100680.63;5245361;28;20021;-78
2024/03/25 06:08:18;;;;;;;13.70;8.77;;;;;;;4.55;100.00;100681.38;5244669;28;20033;-77
2024/03/25 06:10:53;;;;;;;18.30;8.43;;;;;;;4.67;100.00;100682.34;5248128;28;20420;-77
2024/03/25 06:13:25;;;;;;;12.13;8.23;;;;;;;4.60;100.00;100672.34;5246239;28;20612;-77
2024/03/25 06:15:57;;;;;;;13.48;8.85;;;;;;;4.62;100.00;100672.25;5251382;28;20033;-77
2024/03/25 06:18:29;;;;;;;19.80;11.63;;;;;;;4.67;100.00;100675.41;5251643;28;20051;-78
2024/03/25 06:21:01;;;;;;;16.98;10.55;;;;;;;4.72;100.00;100675.09;5254261;28;20037;-77
2024/03/25 06:23:32;;;;;;;15.15;9.98;;;;;;;4.63;100.00;100651.41;5225989;28;20067;-77
2024/03/25 06:26:05;;;;;;;14.40;9.43;;;;;;;4.78;100.00;100664.34;5246800;28;20131;-78
2024/03/25 06:28:36;;;;;;;15.15;9.85;;;;;;;4.77;100.00;100663.53;5247238;28;20196;-77
2024/03/25 06:34:17;;;;;;;13.20;9.70;;;;;;;4.89;100.00;100664.50;5251427;28;20037;-78
2024/03/25 06:36:49;;;;;;;13.95;9.25;;;;;;;4.95;100.00;100666.69;5253812;28;20077;-78
2024/03/25 06:39:21;;;;;;;15.40;8.40;;;;;;;5.00;100.00;100661.19;5256585;28;20061;-78
2024/03/25 06:41:53;;;;;;;13.43;8.73;;;;;;;5.08;100.00;100667.56;5252974;28;20032;-78
2024/03/25 06:44:25;;;;;;;12.52;8.32;;;;;;;5.12;100.00;100670.81;5252157;28;20048;-78
2024/03/25 06:46:57;;;;;;;13.90;9.02;;;;;;;5.16;100.00;100661.88;5255142;28;20431;-78
2024/03/25 06:49:29;;;;;;;11.48;8.18;;;;;;;5.23;100.00;100665.75;5255278;28;20033;-77
2024/03/25 06:52:01;;;;;;;15.48;8.48;;;;;;;5.27;100.00;100669.81;5256091;28;20028;-78
2024/03/25 06:54:33;;;;;;;13.95;8.95;;;;;;;5.32;100.00;100665.13;5254259;28;20041;-77
2024/03/25 06:57:04;;;;;;;12.40;7.70;;;;;;;5.43;100.00;100672.22;5248563;28;20033;-77
2024/03/25 06:59:37;;;;;;;12.55;8.50;;;;;;;5.53;100.00;100669.84;5255217;28;20506;-77
2024/03/25 07:02:09;;;;;;;15.77;8.40;;;;;;;5.63;100.00;100665.69;5254310;28;20032;-78
2024/03/25 07:04:41;;;;;;;15.80;9.10;;;;;;;5.71;100.00;100654.78;5252120;28;20034;-77
2024/03/25 07:07:13;;;;;;;17.20;9.25;;;;;;;5.84;100.00;100658.22;5253270;28;20565;-78
2024/03/25 07:09:44;;;;;;;14.30;8.88;;;;;;;5.97;100.00;100653.03;5252211;28;20033;-78
2024/03/25 07:12:16;;;;;;;20.40;9.98;;;;;;;6.04;100.00;100659.50;5251253;28;20107;-78
2024/03/25 07:14:48;;;;;;;21.45;11.63;;;;;;;6.12;100.00;100662.38;5251997;28;20067;-78
2024/03/25 07:17:23;;;;;;;20.33;10.70;;;;;;;6.19;100.00;100660.19;5250615;28;20029;-78
2024/03/25 07:19:55;;;;;;;23.13;11.32;;;;;;;6.25;100.00;100655.41;5250411;28;20032;-78
2024/03/25 07:22:27;;;;;;;23.02;11.63;;;;;;;6.34;100.00;100654.75;5249132;28;20147;-78
2024/03/25 07:24:59;;;;;;;27.08;12.05;;;;;;;6.49;100.00;100658.06;5250383;28;20039;-78
2024/03/25 07:27:31;;;;;;;28.30;13.48;;;;;;;6.59;100.00;100655.63;5248533;28;20036;-78
2024/03/25 07:30:06;;;;;;;25.83;12.48;;;;;;;6.66;100.00;100653.41;5249012;28;20024;-78
2024/03/25 07:32:38;;;;;;;27.40;13.48;;;;;;;6.61;100.00;100656.34;5248810;28;20032;-78
2024/03/25 07:35:10;;;;;;;26.00;12.63;;;;;;;6.68;100.00;100657.59;5247641;28;20040;-78
2024/03/25 07:37:42;;;;;;;21.92;12.48;;;;;;;6.73;100.00;100657.25;5249660;28;20060;-78
2024/03/25 07:40:14;;;;;;;27.85;13.93;;;;;;;6.80;100.00;100650.66;5231101;28;20630;-78
2024/03/25 07:42:46;;;;;;;26.45;13.48;;;;;;;6.90;100.00;100659.47;5252255;28;20064;-78
2024/03/25 07:45:18;;;;;;;21.73;13.00;;;;;;;6.97;100.00;100657.25;5254085;28;20087;-78
2024/03/25 07:47:51;;;;;;;;;;;;;;;7.74;100.00;100666.25;5253417;28;20754;-78
2024/03/25 07:50:23;;;;;;;23.20;13.18;;;;;;;7.32;100.00;100658.09;5251661;28;19923;-78
2024/03/25 07:52:55;;;;;;;27.02;14.10;;;;;;;7.33;100.00;100661.53;5253378;28;20037;-78
2024/03/25 07:55:27;;;;;;;28.73;14.30;;;;;;;7.43;100.00;100659.91;5253190;28;20028;-78
2024/03/25 07:57:59;;;;;;;25.17;14.23;;;;;;;7.53;100.00;100666.09;5251537;28;20512;-78
2024/03/25 08:00:31;;;;;;;30.38;15.05;;;;;;;7.60;100.00;100671.69;5252868;28;20029;-78
2024/03/25 08:03:03;;;;;;;27.02;15.52;;;;;;;7.68;100.00;100664.09;5252725;28;20063;-78
2024/03/25 08:05:35;;;;;;;25.92;15.27;;;;;;;7.75;100.00;100651.44;5254322;28;20028;-79
2024/03/25 08:08:07;;;;;;;29.80;17.17;;;;;;;7.84;100.00;100655.97;5252300;28;20047;-79
2024/03/25 08:10:39;;;;;;;24.67;15.13;;;;;;;7.88;100.00;100646.97;5251273;28;20037;-79
2024/03/25 08:13:10;;;;;;;24.70;14.82;;;;;;;7.92;100.00;100650.16;5253803;28;20036;-79
2024/03/25 08:15:42;;;;;;;24.45;13.95;;;;;;;8.01;100.00;100649.44;5251954;28;20116;-79
2024/03/25 08:18:14;;;;;;;31.55;15.07;;;;;;;8.10;100.00;100656.56;5250637;28;20238;-79
2024/03/25 08:20:46;;;;;;;20.08;13.02;;;;;;;8.11;100.00;100647.81;5253072;28;20052;-79
2024/03/25 08:23:18;;;;;;;24.48;13.75;;;;;;;8.35;100.00;100662.50;5253175;28;20048;-79
2024/03/25 08:25:50;;;;;;;25.95;14.65;;;;;;;8.48;100.00;100664.03;5250445;28;20047;-79
2024/03/25 08:28:22;;;;;;;23.98;13.65;;;;;;;8.52;100.00;100664.63;5248848;28;20041;-78
2024/03/25 08:30:54;;;;;;;23.80;14.25;;;;;;;8.60;100.00;100666.63;5250659;28;20032;-79
2024/03/25 08:33:26;;;;;;;29.45;13.93;;;;;;;8.80;100.00;100667.66;5248841;28;20032;-79
2024/03/25 08:35:58;;;;;;;21.20;13.35;;;;;;;8.96;100.00;100658.47;5250814;28;20044;-78
2024/03/25 08:38:30;;;;;;;25.88;15.35;;;;;;;9.05;100.00;100659.47;5249306;28;20036;-79
2024/03/25 08:41:02;;;;;;;20.73;14.55;;;;;;;9.23;100.00;100655.38;5249292;28;20136;-79
2024/03/25 08:43:34;;;;;;;23.70;14.68;;;;;;;9.38;100.00;100655.91;5251100;28;20052;-79
2024/03/25 08:46:06;;;;;;;21.92;13.73;;;;;;;9.52;100.00;100654.75;5249253;28;20029;-79
2024/03/25 08:48:38;;;;;;;23.83;14.95;;;;;;;9.68;100.00;100652.50;5246443;28;20060;-79
2024/03/25 08:51:10;;;;;;;26.00;14.65;;;;;;;9.74;100.00;100644.16;5249817;28;20106;-79
2024/03/25 08:53:42;;;;;;;24.98;14.68;;;;;;;9.95;100.00;100648.50;5250391;28;20064;-79
2024/03/25 08:56:14;;;;;;;21.30;14.27;;;;;;;10.06;100.00;100650.22;5252324;28;20032;-79
2024/03/25 08:58:46;;;;;;;22.58;12.93;;;;;;;10.39;100.00;100654.38;5247657;28;20033;-79
2024/03/25 09:01:18;;;;;;;20.58;12.25;;;;;;;10.54;100.00;100653.03;5249300;28;20033;-79
2024/03/25 09:03:50;;;;;;;20.08;12.32;;;;;;;10.59;100.00;100636.91;5232671;28;20044;-79
2024/03/25 09:06:22;;;;;;;25.92;14.07;;;;;;;10.59;100.00;100647.38;5231081;28;20049;-79
2024/03/25 09:11:44;;;;;;;19.00;12.60;;;;;;;10.81;100.00;100639.28;5248458;28;20394;-78
2024/03/25 09:14:16;;;;;;;17.35;11.52;;;;;;;10.76;100.00;100638.88;5244217;28;20482;-78
2024/03/25 09:16:48;;;;;;;18.88;11.95;;;;;;;10.84;100.00;100639.00;5243528;28;20126;-78
2024/03/25 09:19:20;;;;;;;17.10;11.65;;;;;;;10.81;100.00;100622.72;5243524;28;20032;-78
2024/03/25 09:21:52;;;;;;;19.25;12.52;;;;;;;10.91;100.00;100621.78;5245336;28;20063;-78
2024/03/25 09:24:24;;;;;;;17.92;11.20;;;;;;;11.04;100.00;100621.50;5244480;28;20158;-78
2024/03/25 09:26:56;;;;;;;18.77;11.00;;;;;;;11.20;100.00;100613.06;5225097;28;20045;-78
2024/03/25 09:29:28;;;;;;;19.10;12.27;;;;;;;11.28;100.00;100614.97;5241540;28;20039;-78
2024/03/25 09:32:00;;;;;;;21.45;11.38;;;;;;;11.41;100.00;100607.66;5242857;28;20546;-78
2024/03/25 09:34:32;;;;;;;19.90;11.18;;;;;;;11.48;100.00;100600.88;5244011;28;20040;-78
2024/03/25 09:37:04;;;;;;;18.40;10.50;;;;;;;11.55;100.00;100598.50;5242898;28;20067;-78
2024/03/25 09:39:36;;;;;;;17.13;9.90;;;;;;;11.61;100.00;100603.19;5244194;28;20545;-78
2024/03/25 09:42:12;;;;;;;15.65;9.27;;;;;;;11.73;100.00;100599.41;5242744;28;20032;-79
2024/03/25 09:44:44;;;;;;;13.57;9.02;;;;;;;11.73;98.36;100591.53;5244339;28;20053;-79
2024/03/25 09:47:16;;;;;;;16.58;9.57;;;;;;;11.84;94.89;100586.13;5244838;28;20040;-78
2024/03/25 09:49:48;;;;;;;15.23;8.35;;;;;;;12.07;97.80;100593.63;5245170;28;20037;-78
2024/03/25 09:52:20;;;;;;;14.07;8.88;;;;;;;12.26;95.98;100583.03;5244502;28;20037;-79
2024/03/25 09:54:52;;;;;;;16.27;8.13;;;;;;;12.27;86.42;100584.66;5249020;28;20070;-79
2024/03/25 09:57:26;;;;;;;15.27;8.10;;;;;;;12.27;79.94;100581.22;5249427;28;20048;-79
2024/03/25 09:59:57;;;;;;;;;;;;;;;13.03;87.83;100584.25;5245651;28;20043;-79
2024/03/25 10:02:30;;;;;;;15.82;9.13;;;;;;;12.43;84.11;100586.66;5246557;28;19920;-78
2024/03/25 10:05:03;;;;;;;14.70;9.40;;;;;;;12.51;88.71;100576.22;5248551;28;20020;-79
2024/03/25 10:07:35;;;;;;;13.52;9.05;;;;;;;12.73;89.00;100574.13;5247723;28;20024;-80
2024/03/25 10:10:08;;;;;;;15.73;8.32;;;;;;;12.82;84.91;100574.06;5245151;28;20375;-79
2024/03/25 10:12:41;;;;;;;10.88;5.82;;;;;;;12.91;73.15;100567.88;5243679;28;20386;-79
2024/03/25 10:15:16;;;;;;;12.50;6.63;;;;;;;13.10;72.82;100552.91;5246035;28;20024;-79
2024/03/25 10:17:52;;;;;;;12.25;6.47;;;;;;;13.19;72.75;100559.88;5244045;28;20438;-79
2024/03/25 10:20:25;;;;;;;12.18;6.18;;;;;;;12.98;70.16;100554.13;5247774;28;20054;-79
2024/03/25 10:22:57;;;;;;;;;;;;;;;13.84;72.40;100551.53;5244728;28;20277;-79
2024/03/25 10:25:30;;;;;;;12.07;6.45;;;;;;;13.24;68.46;100554.19;5247768;28;19920;-80
2024/03/25 10:28:02;;;;;;;;;;;;;;;13.90;66.70;100556.16;5243123;28;20040;-80
2024/03/25 10:30:34;;;;;;;9.40;4.85;;;;;;;13.20;62.68;100544.91;5249153;28;20024;-80
2024/03/25 10:33:07;;;;;;;10.73;4.60;;;;;;;13.29;67.86;100536.94;5247248;28;20029;-79
2024/03/25 10:35:40;;;;;;;8.15;3.97;;;;;;;13.49;58.22;100544.66;5229508;28;20052;-80
2024/03/25 10:38:16;;;;;;;7.25;4.10;;;;;;;13.37;56.92;100541.44;5248704;28;20044;-80
2024/03/25 10:40:52;;;;;;;8.75;4.70;;;;;;;13.23;62.31;100534.94;5249276;28;20037;-80
2024/03/25 10:43:28;;;;;;;8.55;4.90;;;;;;;13.30;63.48;100527.28;5247944;28;20048;-79
2024/03/25 10:46:01;;;;;;;10.25;4.93;;;;;;;13.44;61.36;100533.75;5251482;28;20033;-80
2024/03/25 10:48:37;;;;;;;9.35;4.50;;;;;;;13.56;58.34;100528.06;5230880;28;20040;-80
2024/03/25 10:51:10;;;;;;;10.48;4.72;;;;;;;13.42;57.91;100520.75;5258530;28;20041;-79
2024/03/25 10:53:42;;;;;;;10.30;3.88;;;;;;;13.69;58.93;100517.09;5240131;28;20501;-79
2024/03/25 10:56:15;;;;;;;7.03;3.78;;;;;;;13.96;57.09;100521.31;5224685;28;20958;-79
2024/03/25 10:58:50;;;;;;;7.72;3.30;;;;;;;14.18;55.35;100516.44;5242175;28;20037;-80
2024/03/25 11:01:22;;;;;;;5.93;2.88;;;;;;;14.27;50.19;100515.44;5244070;28;20457;-79
2024/03/25 11:03:55;;;;;;;5.20;2.87;;;;;;;14.23;49.03;100508.84;5246446;28;20342;-80
2024/03/25 11:06:27;;;;;;;8.02;3.97;;;;;;;14.22;49.46;100505.41;5229087;28;20718;-80
2024/03/25 11:08:59;;;;;;;6.63;3.33;;;;;;;14.30;49.64;100496.69;5247408;28;20041;-79
2024/03/25 11:11:33;;;;;;;8.48;3.28;;;;;;;14.32;48.87;100498.19;5246711;28;20052;-80
2024/03/25 11:14:15;;;;;;;5.68;2.65;;;;;;;14.36;50.94;100507.41;5228803;28;20048;-80
2024/03/25 11:16:54;;;;;;;5.57;2.63;;;;;;;14.14;48.24;100499.28;5247626;28;20041;-80
2024/03/25 11:19:28;;;;;;;6.95;3.30;;;;;;;13.78;47.94;100502.16;5244564;28;20067;-80
2024/03/25 11:22:08;;;;;;;7.15;3.05;;;;;;;14.20;49.65;100496.00;5247301;28;20047;-80
2024/03/25 11:24:44;;;;;;;8.65;3.22;;;;;;;14.57;50.67;100491.13;5247414;28;20036;-80
2024/03/25 11:27:22;;;;;;;10.63;3.10;;;;;;;14.76;50.83;100489.97;5247631;28;20339;-80
2024/03/25 11:29:53;;;;;;;6.10;3.33;;;;;;;14.84;48.38;100478.59;5223162;28;20041;-79
2024/03/25 11:32:27;;;;;;;7.65;3.25;;;;;;;14.94;47.99;100481.88;5243888;28;20518;-79
2024/03/25 11:34:59;;;;;;;8.63;3.40;;;;;;;15.00;47.22;100475.09;5244191;28;20048;-80
2024/03/25 11:37:31;;;;;;;6.40;2.50;;;;;;;15.05;46.84;100470.97;5243568;28;20037;-80
2024/03/25 11:40:04;;;;;;;6.97;2.60;;;;;;;15.02;47.42;100468.66;5242336;28;20402;-80
2024/03/25 11:42:38;;;;;;;6.40;2.85;;;;;;;14.94;46.86;100471.31;5243112;28;20328;-80
2024/03/25 11:45:20;;;;;;;7.88;2.85;;;;;;;14.66;47.40;100464.75;5227419;28;20084;-80
2024/03/25 11:47:52;;;;;;;6.38;2.50;;;;;;;14.29;47.47;100466.06;5247412;28;20617;-80